Time;durP1;ratioP1;P1;durP2;ratioP2;P2;SDS_P1;SDS_P2;PMS_P1;PMS_P2;Temp;Humidity;BMP_temperature;BMP_pressure;BME280_temperature;BME280_humidity;BME280_pressure;Samples;Min_cycle;Max_cycle;Signal;HPM_P1;HPM_P2
2022/07/03 00:00:04;;;;;;;379.83;327.77;;;;;;;26.21;57.75;99945.91;343027;28;876;-81
2022/07/03 00:00:14;;;;;;;377.98;325.95;;;;;;;26.22;57.23;99939.53;345109;28;1364;-81
2022/07/03 00:00:25;;;;;;;379.55;327.35;;;;;;;26.22;57.70;99945.75;346189;28;1235;-81
2022/07/03 00:00:35;;;;;;;378.17;321.00;;;;;;;26.23;57.29;99947.44;342509;28;1211;-81
2022/07/03 00:00:46;;;;;;;376.90;319.77;;;;;;;26.24;57.22;99942.91;342525;28;1283;-81
2022/07/03 00:00:56;;;;;;;377.40;322.53;;;;;;;26.25;57.45;99947.28;342359;28;1243;-81
2022/07/03 00:01:06;;;;;;;381.23;329.95;;;;;;;26.26;57.50;99946.28;343825;28;1362;-81
2022/07/03 00:01:17;;;;;;;382.50;331.20;;;;;;;26.23;57.00;99941.22;342622;28;1341;-81
2022/07/03 00:01:27;;;;;;;380.70;327.20;;;;;;;26.25;57.14;99941.91;343698;28;1249;-82
2022/07/03 00:01:38;;;;;;;379.87;323.27;;;;;;;26.25;57.58;99942.75;343835;28;1315;-82
2022/07/03 00:01:48;;;;;;;382.27;324.00;;;;;;;26.23;57.62;99943.91;342522;28;1207;-81
2022/07/03 00:01:59;;;;;;;384.33;325.37;;;;;;;26.26;57.46;99943.59;343824;28;1374;-81
2022/07/03 00:02:09;;;;;;;383.15;326.67;;;;;;;26.27;57.26;99945.28;345462;28;1391;-81
2022/07/03 00:02:20;;;;;;;380.02;324.90;;;;;;;26.26;57.60;99941.78;344199;28;1393;-81
2022/07/03 00:02:30;;;;;;;379.17;324.70;;;;;;;26.29;57.65;99943.31;343037;28;1309;-81
2022/07/03 00:02:41;;;;;;;379.53;323.87;;;;;;;26.29;57.48;99943.31;344496;28;830;-81
2022/07/03 00:02:51;;;;;;;377.67;320.15;;;;;;;26.28;57.55;99942.47;343017;28;1227;-81
2022/07/03 00:03:02;;;;;;;377.33;321.17;;;;;;;26.27;57.13;99939.94;343542;28;1067;-81
2022/07/03 00:03:12;;;;;;;379.77;324.75;;;;;;;26.28;57.36;99946.97;344335;28;1306;-81
2022/07/03 00:03:22;;;;;;;382.10;329.03;;;;;;;26.28;57.66;99946.97;342421;28;1391;-81
2022/07/03 00:03:33;;;;;;;382.40;331.17;;;;;;;26.26;57.23;99944.44;344036;28;1536;-81
2022/07/03 00:03:43;;;;;;;382.63;332.60;;;;;;;26.22;57.70;99932.34;342364;28;1387;-81
2022/07/03 00:03:54;;;;;;;383.23;330.33;;;;;;;26.24;57.90;99946.44;342569;28;900;-81
2022/07/03 00:04:04;;;;;;;382.25;326.80;;;;;;;26.19;58.07;99938.84;343770;28;1247;-81
2022/07/03 00:04:15;;;;;;;385.23;328.37;;;;;;;26.24;57.80;99950.97;343897;28;1288;-81
2022/07/03 00:04:25;;;;;;;384.00;329.45;;;;;;;26.21;57.99;99946.75;343893;28;1351;-81
2022/07/03 00:04:35;;;;;;;387.20;331.43;;;;;;;26.18;58.28;99936.31;343894;28;1131;-81
2022/07/03 00:04:46;;;;;;;388.83;328.73;;;;;;;26.18;58.27;99945.22;345834;28;838;-81
2022/07/03 00:04:56;;;;;;;392.20;328.93;;;;;;;26.17;58.60;99930.13;341352;28;1477;-81
2022/07/03 00:05:07;;;;;;;387.83;326.80;;;;;;;26.16;58.46;99941.00;345612;28;1337;-81
2022/07/03 00:05:18;;;;;;;383.43;326.83;;;;;;;26.15;58.53;99937.47;344561;28;1512;-81
2022/07/03 00:05:28;;;;;;;379.42;327.23;;;;;;;26.17;58.37;99935.47;342152;28;1003;-81
2022/07/03 00:05:39;;;;;;;380.98;328.25;;;;;;;26.16;58.19;99936.47;343067;28;1200;-81
2022/07/03 00:05:49;;;;;;;384.33;330.87;;;;;;;26.19;58.63;99943.38;343038;28;1199;-81
2022/07/03 00:06:00;;;;;;;384.30;330.83;;;;;;;26.18;58.48;99936.31;342475;28;1249;-81
2022/07/03 00:06:10;;;;;;;385.33;336.50;;;;;;;26.18;58.71;99937.16;342459;28;1340;-81
2022/07/03 00:06:20;;;;;;;384.33;333.03;;;;;;;26.19;59.13;99938.00;342474;28;902;-81
2022/07/03 00:06:31;;;;;;;383.25;331.90;;;;;;;26.18;58.81;99937.16;344858;28;1489;-81
2022/07/03 00:06:42;;;;;;;382.58;329.02;;;;;;;26.17;58.67;99935.47;343942;28;1240;-81
2022/07/03 00:06:54;;;;;;;381.25;330.80;;;;;;;26.19;59.04;99936.16;343776;28;910;-81
2022/07/03 00:07:04;;;;;;;383.05;332.13;;;;;;;26.18;58.81;99942.53;342471;28;1338;-82
2022/07/03 00:07:15;;;;;;;380.33;327.73;;;;;;;26.21;59.07;99940.53;342306;28;1292;-82
2022/07/03 00:07:25;;;;;;;382.43;329.97;;;;;;;26.21;59.01;99941.38;346347;28;1197;-81
2022/07/03 00:07:38;;;;;;;381.75;329.70;;;;;;;26.21;59.04;99932.50;342988;28;1367;-81
2022/07/03 00:07:49;;;;;;;382.17;328.58;;;;;;;26.18;59.11;99939.84;341342;29;971;-81
2022/07/03 00:07:59;;;;;;;384.70;329.80;;;;;;;26.17;59.09;99934.63;343445;28;1174;-81
2022/07/03 00:08:10;;;;;;;384.80;329.50;;;;;;;26.17;59.32;99940.00;344512;28;1188;-81
2022/07/03 00:08:20;;;;;;;385.03;328.73;;;;;;;26.17;59.06;99937.31;344490;28;829;-81
2022/07/03 00:08:30;;;;;;;383.70;328.17;;;;;;;26.14;59.59;99935.78;345595;28;1374;-81
2022/07/03 00:08:41;;;;;;;385.30;328.47;;;;;;;26.16;59.76;99927.59;343990;28;1320;-81
2022/07/03 00:08:51;;;;;;;384.70;332.77;;;;;;;26.14;59.66;99935.78;346553;28;1266;-81
2022/07/03 00:09:03;;;;;;;382.10;333.17;;;;;;;26.14;59.97;99927.75;343778;28;1386;-81
2022/07/03 00:09:13;;;;;;;378.40;331.20;;;;;;;26.13;59.53;99934.09;343906;28;1395;-81
2022/07/03 00:09:24;;;;;;;378.88;330.45;;;;;;;26.12;59.88;99929.72;343756;28;1359;-81
2022/07/03 00:09:34;;;;;;;379.98;328.40;;;;;;;26.11;59.55;99930.72;342563;28;743;-81
2022/07/03 00:09:45;;;;;;;383.10;332.30;;;;;;;26.08;59.69;99931.03;343816;28;1183;-81
2022/07/03 00:09:56;;;;;;;385.83;330.55;;;;;;;26.13;59.85;99933.25;345045;28;1338;-81
2022/07/03 00:10:07;;;;;;;384.23;326.73;;;;;;;26.14;59.93;99930.41;343373;28;1183;-81
2022/07/03 00:10:17;;;;;;;382.30;326.63;;;;;;;26.12;59.60;99932.41;342374;28;1961;-81
2022/07/03 00:10:28;;;;;;;381.77;326.83;;;;;;;26.10;59.74;99934.41;342644;28;1246;-81
2022/07/03 00:10:39;;;;;;;383.95;330.48;;;;;;;26.12;60.00;99932.41;344577;28;1036;-81
2022/07/03 00:10:49;;;;;;;383.63;326.35;;;;;;;26.13;60.14;99933.25;344643;28;1272;-81
2022/07/03 00:11:00;;;;;;;386.10;327.73;;;;;;;26.14;60.00;99933.09;343504;28;1043;-81
2022/07/03 00:11:11;;;;;;;387.98;330.40;;;;;;;26.13;60.04;99928.75;341514;28;1260;-81
2022/07/03 00:11:21;;;;;;;388.40;333.63;;;;;;;26.13;59.72;99930.56;343978;28;1489;-81
2022/07/03 00:11:32;;;;;;;387.07;336.80;;;;;;;26.11;60.16;99920.00;341129;29;1225;-81
2022/07/03 00:11:43;;;;;;;387.48;334.65;;;;;;;26.15;60.25;99932.13;339890;29;767;-81
2022/07/03 00:11:54;;;;;;;385.98;328.45;;;;;;;26.12;59.76;99932.41;339691;29;1365;-81
2022/07/03 00:12:05;;;;;;;386.30;329.60;;;;;;;26.12;60.05;99921.69;342463;28;1290;-81
2022/07/03 00:12:16;;;;;;;383.85;330.85;;;;;;;26.11;60.52;99936.09;342318;28;1486;-81
2022/07/03 00:12:26;;;;;;;385.42;333.25;;;;;;;26.11;60.21;99929.88;344697;28;1319;-81
2022/07/03 00:12:36;;;;;;;386.77;333.50;;;;;;;26.14;60.20;99929.59;342244;28;1301;-81
2022/07/03 00:12:47;;;;;;;385.13;330.20;;;;;;;26.12;60.05;99934.25;344425;28;1263;-81
2022/07/03 00:12:57;;;;;;;386.17;330.87;;;;;;;26.13;59.98;99931.41;344370;28;1315;-81
2022/07/03 00:13:08;;;;;;;388.83;329.83;;;;;;;26.13;60.26;99927.91;344109;28;1231;-81
2022/07/03 00:13:18;;;;;;;389.42;330.13;;;;;;;26.16;59.87;99931.13;343129;28;1252;-81
2022/07/03 00:13:28;;;;;;;384.07;324.00;;;;;;;26.13;59.79;99928.75;344016;28;1518;-81
2022/07/03 00:13:39;;;;;;;380.77;322.35;;;;;;;26.18;60.47;99937.16;344483;28;1091;-81
2022/07/03 00:13:49;;;;;;;380.10;320.33;;;;;;;26.19;59.89;99938.00;344049;28;1227;-81
2022/07/03 00:14:00;;;;;;;378.20;323.10;;;;;;;26.19;59.88;99927.28;341612;29;1198;-81
2022/07/03 00:14:10;;;;;;;378.40;325.67;;;;;;;26.21;60.25;99932.50;342363;28;1167;-81
2022/07/03 00:14:21;;;;;;;377.83;326.23;;;;;;;26.19;59.94;99933.50;343714;28;1318;-81
2022/07/03 00:14:32;;;;;;;381.57;327.23;;;;;;;26.19;60.13;99932.66;345124;28;1318;-81
2022/07/03 00:14:43;;;;;;;376.60;322.83;;;;;;;26.19;60.38;99933.50;342529;28;1398;-81
2022/07/03 00:14:53;;;;;;;377.03;328.90;;;;;;;26.19;60.29;99935.31;342481;28;1005;-81
2022/07/03 00:15:04;;;;;;;377.13;326.53;;;;;;;26.21;60.46;99935.19;343793;28;1271;-81
2022/07/03 00:15:14;;;;;;;379.85;327.70;;;;;;;26.21;60.42;99932.50;341427;28;1570;-81
2022/07/03 00:15:25;;;;;;;381.73;328.13;;;;;;;26.22;60.32;99936.88;344634;28;805;-81
2022/07/03 00:15:35;;;;;;;382.03;329.03;;;;;;;26.19;60.49;99928.13;344616;28;1405;-81
2022/07/03 00:15:46;;;;;;;383.42;326.85;;;;;;;26.17;60.65;99935.47;343014;28;1212;-81
2022/07/03 00:15:56;;;;;;;382.97;325.00;;;;;;;26.16;60.89;99933.78;343885;28;1298;-81
2022/07/03 00:16:07;;;;;;;383.10;325.23;;;;;;;26.17;60.52;99935.47;342961;28;1265;-81
2022/07/03 00:16:17;;;;;;;387.73;333.20;;;;;;;26.18;60.32;99926.44;344469;28;1275;-81
2022/07/03 00:16:29;;;;;;;391.50;337.60;;;;;;;26.17;60.68;99932.81;345278;28;984;-81
2022/07/03 00:16:39;;;;;;;389.73;336.90;;;;;;;26.17;60.53;99935.47;344235;28;1373;-80
2022/07/03 00:16:49;;;;;;;386.27;335.15;;;;;;;26.18;60.69;99920.22;341182;29;906;-80
2022/07/03 00:17:00;;;;;;;385.47;335.00;;;;;;;26.17;60.82;99930.13;343678;28;1400;-80
2022/07/03 00:17:10;;;;;;;384.35;329.85;;;;;;;26.19;60.60;99929.97;346571;28;1429;-80
2022/07/03 00:17:21;;;;;;;384.73;327.07;;;;;;;26.14;60.61;99925.06;343734;28;1287;-80
2022/07/03 00:17:31;;;;;;;381.93;322.83;;;;;;;26.11;60.68;99925.38;342619;28;1240;-80
2022/07/03 00:17:41;;;;;;;382.20;323.52;;;;;;;26.09;60.69;99927.34;343743;28;1475;-80
2022/07/03 00:17:52;;;;;;;383.47;324.83;;;;;;;26.09;61.01;99922.00;342539;28;1307;-80
2022/07/03 00:18:02;;;;;;;383.10;328.05;;;;;;;26.10;60.83;99929.03;341674;29;1098;-80
2022/07/03 00:18:13;;;;;;;385.10;334.43;;;;;;;26.11;60.89;99925.38;344205;28;1199;-80
2022/07/03 00:18:23;;;;;;;385.63;337.50;;;;;;;26.05;61.38;99923.28;345901;28;1212;-80
2022/07/03 00:18:33;;;;;;;387.63;334.90;;;;;;;26.04;61.35;99924.28;343892;28;892;-80
2022/07/03 00:18:44;;;;;;;384.87;327.33;;;;;;;26.03;61.08;99927.97;344389;28;1300;-80
2022/07/03 00:18:54;;;;;;;386.45;326.58;;;;;;;26.05;61.23;99931.34;342815;28;1304;-80
2022/07/03 00:19:05;;;;;;;386.83;328.53;;;;;;;26.01;61.17;99919.22;344140;28;1019;-80
2022/07/03 00:19:15;;;;;;;389.33;332.50;;;;;;;26.05;61.16;99925.13;342666;28;810;-80
2022/07/03 00:19:25;;;;;;;387.67;332.47;;;;;;;26.06;61.33;99932.19;342898;28;1274;-80
2022/07/03 00:19:36;;;;;;;386.37;329.53;;;;;;;26.06;61.21;99926.81;342473;28;1198;-80
2022/07/03 00:19:46;;;;;;;385.65;329.85;;;;;;;26.07;61.21;99928.50;345238;28;1271;-80
2022/07/03 00:19:57;;;;;;;383.50;330.27;;;;;;;26.07;60.87;99917.78;345061;28;1303;-80
2022/07/03 00:20:08;;;;;;;383.50;332.30;;;;;;;26.09;60.57;99926.50;345206;28;1379;-80
2022/07/03 00:20:19;;;;;;;384.30;334.15;;;;;;;26.08;61.13;99930.19;343638;28;1644;-80
2022/07/03 00:20:30;;;;;;;387.38;335.60;;;;;;;26.08;61.35;99922.16;342797;28;881;-80
2022/07/03 00:20:45;;;;;;;387.33;336.15;;;;;;;26.06;61.34;99927.66;344279;28;1202;-80
2022/07/03 00:21:05;;;;;;;380.98;328.95;;;;;;;26.10;60.73;99929.03;345496;28;1295;-80
2022/07/03 00:21:20;;;;;;;380.63;327.55;;;;;;;26.10;60.97;99922.84;343914;28;794;-80
2022/07/03 00:21:41;;;;;;;383.70;332.75;;;;;;;26.10;60.89;99929.03;341834;28;1186;-80
2022/07/03 00:21:51;;;;;;;383.05;334.58;;;;;;;26.09;61.30;99930.03;341299;28;960;-80
2022/07/03 00:22:03;;;;;;;382.83;334.57;;;;;;;26.09;61.39;99926.50;341575;29;861;-80
2022/07/03 00:22:14;;;;;;;381.73;332.45;;;;;;;26.08;61.03;99924.81;341064;29;1118;-80
2022/07/03 00:22:25;;;;;;;380.48;328.23;;;;;;;26.07;61.20;99923.97;344539;28;1232;-80
2022/07/03 00:22:37;;;;;;;380.75;326.10;;;;;;;26.09;61.04;99926.50;343896;28;1432;-80
2022/07/03 00:22:47;;;;;;;378.88;321.77;;;;;;;26.07;61.22;99923.97;344187;28;1375;-80
2022/07/03 00:22:58;;;;;;;382.13;328.77;;;;;;;26.06;61.28;99926.81;345115;28;1326;-80
2022/07/03 00:23:09;;;;;;;385.60;332.97;;;;;;;26.08;61.39;99932.88;344421;28;1176;-81
2022/07/03 00:23:21;;;;;;;385.25;333.98;;;;;;;26.05;61.07;99925.97;346531;28;1460;-81
2022/07/03 00:23:57;;;;;;;382.48;328.25;;;;;;;26.04;61.51;99929.66;343083;28;1099;-81
2022/07/03 00:24:08;;;;;;;380.73;329.17;;;;;;;26.07;61.15;99929.34;340290;29;1360;-81
2022/07/03 00:24:26;;;;;;;382.80;333.42;;;;;;;26.06;61.06;99933.03;340147;29;1139;-81
2022/07/03 00:24:44;;;;;;;382.17;326.38;;;;;;;26.10;61.14;99933.56;343754;28;865;-80
2022/07/03 00:25:05;;;;;;;381.63;326.63;;;;;;;26.10;61.30;99929.03;341159;29;1383;-80
2022/07/03 00:25:15;;;;;;;383.60;331.45;;;;;;;26.11;61.11;99928.03;341393;28;1652;-80
2022/07/03 00:25:26;;;;;;;384.03;330.03;;;;;;;26.09;61.01;99927.34;342351;28;1251;-80
2022/07/03 00:25:37;;;;;;;383.83;331.80;;;;;;;26.10;61.32;99934.41;343912;28;1500;-80
2022/07/03 00:25:47;;;;;;;382.33;324.48;;;;;;;26.08;61.37;99931.03;345189;28;1414;-80
2022/07/03 00:26:01;;;;;;;382.77;326.43;;;;;;;26.08;61.59;99932.88;343908;28;1300;-80
2022/07/03 00:26:13;;;;;;;381.35;329.08;;;;;;;26.07;61.14;99929.34;345662;28;1002;-80
2022/07/03 00:26:23;;;;;;;384.58;336.25;;;;;;;26.08;61.22;99936.41;344293;28;1334;-80
2022/07/03 00:26:35;;;;;;;382.40;331.55;;;;;;;26.08;61.33;99936.41;343929;28;1247;-80
2022/07/03 00:26:45;;;;;;;384.17;328.88;;;;;;;26.08;61.40;99931.03;342728;28;1295;-80
2022/07/03 00:26:56;;;;;;;384.73;329.77;;;;;;;26.07;61.63;99921.31;341733;29;874;-80
2022/07/03 00:27:08;;;;;;;385.67;327.52;;;;;;;26.04;61.37;99921.59;344248;28;1551;-80
2022/07/03 00:27:19;;;;;;;385.42;326.15;;;;;;;26.06;61.40;99927.66;343963;28;909;-80
2022/07/03 00:27:32;;;;;;;383.95;325.42;;;;;;;26.08;61.74;99919.47;344411;28;900;-80
2022/07/03 00:27:43;;;;;;;386.65;336.90;;;;;;;26.06;61.72;99930.34;343822;28;1291;-80
2022/07/03 00:27:53;;;;;;;386.13;336.20;;;;;;;26.06;61.79;99926.81;343698;28;1295;-80
2022/07/03 00:28:04;;;;;;;386.27;336.67;;;;;;;26.05;61.62;99925.97;343983;28;1355;-80
2022/07/03 00:28:15;;;;;;;384.83;332.13;;;;;;;26.04;61.78;99929.66;346646;28;1263;-80
2022/07/03 00:28:25;;;;;;;385.67;334.08;;;;;;;26.05;61.50;99925.97;346049;28;730;-80
2022/07/03 00:28:36;;;;;;;384.03;331.10;;;;;;;26.03;61.42;99925.28;343955;28;786;-80
2022/07/03 00:28:46;;;;;;;384.35;333.98;;;;;;;26.02;61.65;99925.44;345710;28;1357;-80
2022/07/03 00:28:58;;;;;;;383.23;330.20;;;;;;;26.04;61.51;99924.28;345492;28;794;-80
2022/07/03 00:29:09;;;;;;;382.65;329.52;;;;;;;26.04;61.33;99926.97;347192;28;908;-80
2022/07/03 00:29:21;;;;;;;384.10;326.23;;;;;;;25.97;61.57;99915.19;343953;28;1406;-80
2022/07/03 00:29:35;;;;;;;386.00;331.05;;;;;;;26.00;61.76;99922.06;344093;28;1290;-80
2022/07/03 00:29:46;;;;;;;385.92;333.15;;;;;;;26.00;61.25;99922.06;345713;28;1264;-80
2022/07/03 00:30:00;;;;;;;385.05;331.13;;;;;;;26.02;61.81;99925.44;343781;28;1378;-81
2022/07/03 00:30:10;;;;;;;385.70;332.58;;;;;;;25.96;61.71;99926.94;342928;28;1305;-81
2022/07/03 00:30:21;;;;;;;384.40;332.60;;;;;;;25.95;61.98;99919.88;343430;28;1918;-81
2022/07/03 00:30:31;;;;;;;385.97;333.00;;;;;;;25.93;62.14;99921.88;343758;28;1199;-81
2022/07/03 00:30:42;;;;;;;387.03;331.13;;;;;;;25.94;61.96;99920.03;343926;28;871;-81
2022/07/03 00:30:52;;;;;;;387.40;331.20;;;;;;;25.92;62.25;99925.53;341337;29;1312;-81
2022/07/03 00:31:03;;;;;;;386.90;331.40;;;;;;;25.90;62.20;99922.19;344566;28;1201;-81
2022/07/03 00:31:13;;;;;;;387.17;329.48;;;;;;;25.91;62.68;99923.00;345051;28;1299;-81
2022/07/03 00:31:23;;;;;;;385.33;325.30;;;;;;;25.90;62.78;99916.81;342638;28;1185;-81
2022/07/03 00:31:34;;;;;;;384.67;324.45;;;;;;;25.91;62.85;99923.84;345404;28;1212;-81
2022/07/03 00:31:44;;;;;;;384.37;331.00;;;;;;;25.91;63.03;99929.22;346680;28;1183;-81
2022/07/03 00:31:55;;;;;;;384.35;334.00;;;;;;;25.91;62.66;99920.34;348584;28;750;-81
2022/07/03 00:32:07;;;;;;;384.50;336.47;;;;;;;25.90;63.07;99916.81;343913;28;1188;-81
2022/07/03 00:32:24;;;;;;;386.42;337.40;;;;;;;25.89;63.15;99920.50;344285;28;1285;-81
2022/07/03 00:32:35;;;;;;;385.88;334.55;;;;;;;25.90;62.84;99922.19;345593;28;1031;-81
2022/07/03 00:32:45;;;;;;;386.33;332.00;;;;;;;25.90;63.08;99922.19;345401;28;1207;-81
2022/07/03 00:32:55;;;;;;;385.70;328.43;;;;;;;25.88;63.33;99921.47;345828;28;1067;-81
2022/07/03 00:33:06;;;;;;;387.50;329.83;;;;;;;25.88;63.06;99923.31;341144;29;1598;-81
2022/07/03 00:33:17;;;;;;;389.15;333.17;;;;;;;25.90;63.10;99922.19;342578;28;798;-81
2022/07/03 00:33:27;;;;;;;391.37;337.57;;;;;;;25.86;63.17;99920.78;342427;28;1386;-81
2022/07/03 00:33:38;;;;;;;390.48;338.15;;;;;;;25.84;63.20;99917.41;344541;28;1216;-81
2022/07/03 00:33:48;;;;;;;386.95;336.00;;;;;;;25.81;63.20;99923.94;341412;28;1404;-81
2022/07/03 00:34:00;;;;;;;383.60;330.80;;;;;;;25.81;63.51;99917.72;342754;28;1421;-81
2022/07/03 00:34:11;;;;;;;382.92;329.50;;;;;;;25.80;63.57;99916.88;342550;28;1288;-81
2022/07/03 00:34:22;;;;;;;382.00;328.45;;;;;;;25.78;63.44;99918.03;342456;28;912;-81
2022/07/03 00:34:32;;;;;;;385.57;331.53;;;;;;;25.80;63.96;99916.88;342999;28;1291;-81
2022/07/03 00:34:43;;;;;;;384.58;332.05;;;;;;;25.81;63.51;99923.09;343910;28;1298;-81
2022/07/03 00:34:54;;;;;;;385.57;332.20;;;;;;;25.79;63.35;99917.03;344020;28;1319;-81
2022/07/03 00:35:05;;;;;;;383.90;330.40;;;;;;;25.78;63.59;99915.34;342890;28;1339;-81
2022/07/03 00:35:16;;;;;;;385.52;333.25;;;;;;;25.78;63.80;99918.88;343121;28;1735;-81
2022/07/03 00:35:27;;;;;;;386.88;337.88;;;;;;;25.81;64.16;99917.72;342524;28;1288;-81
2022/07/03 00:35:37;;;;;;;385.97;339.80;;;;;;;25.82;63.93;99908.69;344108;28;1398;-81
2022/07/03 00:35:48;;;;;;;385.20;336.48;;;;;;;25.83;63.57;99921.09;343738;28;1219;-81
2022/07/03 00:35:59;;;;;;;383.40;332.50;;;;;;;25.82;63.50;99909.53;344030;28;1452;-81
2022/07/03 00:36:09;;;;;;;385.90;333.70;;;;;;;25.83;63.79;99910.38;342871;28;779;-81
2022/07/03 00:36:20;;;;;;;385.57;335.40;;;;;;;25.80;63.52;99916.03;342856;28;1203;-81
2022/07/03 00:36:34;;;;;;;386.10;332.15;;;;;;;25.78;63.80;99918.03;343667;28;1244;-81
2022/07/03 00:36:46;;;;;;;387.25;329.75;;;;;;;25.77;63.88;99913.66;343817;28;1400;-81
2022/07/03 00:36:57;;;;;;;390.60;336.35;;;;;;;25.74;63.72;99905.91;341035;28;1272;-81
2022/07/03 00:37:08;;;;;;;391.93;341.77;;;;;;;25.79;64.09;99919.72;342693;28;1287;-81
2022/07/03 00:37:18;;;;;;;390.35;340.83;;;;;;;25.78;63.77;99912.66;341507;28;1384;-81
2022/07/03 00:37:29;;;;;;;388.60;338.92;;;;;;;25.80;63.88;99905.31;343880;28;857;-81
2022/07/03 00:37:40;;;;;;;386.20;332.85;;;;;;;25.80;63.54;99916.88;341457;28;1288;-82
2022/07/03 00:37:51;;;;;;;383.20;329.87;;;;;;;25.79;63.84;99908.97;342895;28;1284;-81
2022/07/03 00:38:01;;;;;;;382.73;326.25;;;;;;;25.78;63.40;99912.66;342942;28;1380;-81
2022/07/03 00:38:12;;;;;;;385.37;329.27;;;;;;;25.80;63.97;99911.50;341425;28;1216;-81
2022/07/03 00:38:22;;;;;;;386.98;329.13;;;;;;;25.80;63.71;99916.88;343006;28;940;-81
2022/07/03 00:38:33;;;;;;;386.95;328.85;;;;;;;25.81;63.82;99907.00;342479;28;861;-81
2022/07/03 00:38:44;;;;;;;387.10;328.23;;;;;;;25.79;63.92;99911.66;343909;28;1197;-81
2022/07/03 00:38:54;;;;;;;387.63;329.90;;;;;;;25.78;63.59;99901.94;343980;28;1439;-81
2022/07/03 00:39:05;;;;;;;385.55;325.88;;;;;;;25.78;63.54;99908.13;344214;28;1203;-81
2022/07/03 00:39:15;;;;;;;386.50;325.67;;;;;;;25.81;63.59;99912.34;345190;28;1180;-81
2022/07/03 00:39:26;;;;;;;386.13;325.52;;;;;;;25.78;63.59;99912.66;342497;28;1228;-81
2022/07/03 00:39:38;;;;;;;388.97;327.50;;;;;;;25.78;63.75;99910.81;345269;28;1203;-81
2022/07/03 00:39:48;;;;;;;387.55;328.38;;;;;;;25.79;63.67;99908.97;345195;28;1357;-81
2022/07/03 00:39:59;;;;;;;384.55;325.92;;;;;;;25.78;63.17;99901.94;344399;28;1208;-81
2022/07/03 00:40:10;;;;;;;384.23;328.53;;;;;;;25.78;63.81;99912.66;343951;28;1184;-81
2022/07/03 00:40:20;;;;;;;385.15;330.80;;;;;;;25.76;63.85;99914.66;345206;28;1635;-81
2022/07/03 00:40:30;;;;;;;386.70;332.37;;;;;;;25.74;64.20;99900.56;345943;28;1095;-81
2022/07/03 00:40:41;;;;;;;385.60;329.98;;;;;;;25.71;63.86;99900.84;343069;28;1227;-81
2022/07/03 00:40:51;;;;;;;383.10;325.60;;;;;;;25.72;63.95;99908.75;345086;28;818;-81
2022/07/03 00:41:02;;;;;;;382.10;320.45;;;;;;;25.74;63.72;99905.91;345652;28;1223;-81
2022/07/03 00:41:27;;;;;;;382.07;318.03;;;;;;;25.74;63.78;99905.91;345100;28;1317;-81
2022/07/03 00:41:37;;;;;;;379.02;319.95;;;;;;;25.73;63.74;99904.22;345345;28;1656;-81
2022/07/03 00:41:48;;;;;;;383.73;326.80;;;;;;;25.73;63.57;99905.06;342358;28;1316;-81
2022/07/03 00:42:01;;;;;;;384.67;326.63;;;;;;;25.72;63.49;99907.91;341363;28;1515;-81
2022/07/03 00:42:12;;;;;;;386.00;329.73;;;;;;;25.69;63.82;99908.22;341222;28;1402;-81
2022/07/03 00:42:22;;;;;;;386.25;329.83;;;;;;;25.69;63.90;99908.22;343009;28;1294;-81
2022/07/03 00:42:33;;;;;;;387.25;332.30;;;;;;;25.67;63.98;99911.03;344093;28;1211;-81
2022/07/03 00:42:44;;;;;;;387.67;334.17;;;;;;;25.65;64.17;99901.47;343065;28;1374;-81
2022/07/03 00:42:54;;;;;;;387.75;333.23;;;;;;;25.64;64.11;99907.81;343859;28;1430;-81
2022/07/03 00:43:04;;;;;;;388.08;330.92;;;;;;;25.66;63.59;99908.50;344274;28;1323;-81
2022/07/03 00:43:15;;;;;;;387.93;329.10;;;;;;;25.65;64.12;99909.50;343899;28;1305;-81
2022/07/03 00:43:26;;;;;;;385.90;326.05;;;;;;;25.65;64.03;99901.47;345548;28;1217;-81
2022/07/03 00:43:36;;;;;;;382.67;325.20;;;;;;;25.65;64.10;99906.81;342522;28;1105;-81
2022/07/03 00:43:47;;;;;;;381.67;322.43;;;;;;;25.62;64.03;99902.56;344601;28;1327;-81
2022/07/03 00:43:57;;;;;;;385.27;329.58;;;;;;;25.64;63.94;99905.13;342573;28;1299;-81
2022/07/03 00:44:08;;;;;;;384.97;331.57;;;;;;;25.66;64.19;99903.16;342651;28;1195;-81
2022/07/03 00:44:18;;;;;;;382.88;332.48;;;;;;;25.65;64.07;99906.81;342583;28;972;-81
2022/07/03 00:44:29;;;;;;;383.17;328.17;;;;;;;25.67;64.08;99915.56;340988;28;1301;-81
2022/07/03 00:44:44;;;;;;;384.10;326.55;;;;;;;25.65;64.13;99906.81;342421;28;1315;-81
2022/07/03 00:44:56;;;;;;;378.48;323.70;;;;;;;25.64;64.01;99905.13;346576;28;1127;-81
2022/07/03 00:45:07;;;;;;;375.27;317.20;;;;;;;25.64;64.16;99908.66;343831;28;1416;-81
2022/07/03 00:45:19;;;;;;;376.40;318.08;;;;;;;25.63;64.13;99908.78;343671;28;1472;-81
2022/07/03 00:45:33;;;;;;;380.50;319.23;;;;;;;25.63;64.46;99908.78;343971;28;1420;-81
2022/07/03 00:45:49;;;;;;;380.85;321.98;;;;;;;25.61;64.40;99908.94;346753;28;966;-81
2022/07/03 00:46:06;;;;;;;381.73;321.75;;;;;;;25.61;64.03;99906.25;342883;28;1283;-81
2022/07/03 00:46:17;;;;;;;380.02;324.50;;;;;;;25.62;64.27;99915.97;343839;28;1400;-81
2022/07/03 00:46:27;;;;;;;381.17;327.90;;;;;;;25.60;64.26;99907.25;343030;28;1393;-81
2022/07/03 00:46:39;;;;;;;383.43;324.83;;;;;;;25.59;64.21;99912.75;342544;28;1188;-81
2022/07/03 00:46:49;;;;;;;384.25;325.27;;;;;;;25.61;64.36;99902.72;341376;29;782;-81
2022/07/03 00:47:00;;;;;;;384.05;324.48;;;;;;;25.61;64.29;99906.25;342266;28;1232;-81
2022/07/03 00:47:11;;;;;;;385.77;330.53;;;;;;;25.63;64.62;99909.63;345132;28;1310;-81
2022/07/03 00:47:23;;;;;;;383.38;328.80;;;;;;;25.62;64.40;99907.09;345345;28;778;-81
2022/07/03 00:47:35;;;;;;;382.95;327.25;;;;;;;25.61;64.40;99905.41;343684;28;1335;-81
2022/07/03 00:47:46;;;;;;;385.80;328.60;;;;;;;25.59;64.79;99910.06;343763;28;1311;-81
2022/07/03 00:47:56;;;;;;;385.08;324.38;;;;;;;25.55;64.51;99911.41;344386;28;1468;-81
2022/07/03 00:48:06;;;;;;;387.53;325.07;;;;;;;25.51;64.71;99900.97;342950;28;1205;-81
2022/07/03 00:48:18;;;;;;;387.45;324.58;;;;;;;25.55;64.64;99906.03;343184;28;1429;-81
2022/07/03 00:48:30;;;;;;;386.50;325.23;;;;;;;25.55;64.53;99898.84;342910;28;821;-81
2022/07/03 00:48:40;;;;;;;383.20;322.20;;;;;;;25.56;64.92;99907.72;343046;28;1311;-81
2022/07/03 00:48:52;;;;;;;383.20;323.77;;;;;;;25.56;64.47;99907.72;344006;28;1255;-81
2022/07/03 00:49:02;;;;;;;384.08;324.83;;;;;;;25.50;64.58;99899.28;345422;28;1267;-81
2022/07/03 00:49:13;;;;;;;384.50;326.80;;;;;;;25.53;64.93;99906.19;344370;28;1325;-81
2022/07/03 00:49:23;;;;;;;384.53;326.83;;;;;;;25.51;64.90;99909.03;342802;28;1208;-81
2022/07/03 00:49:34;;;;;;;385.20;326.08;;;;;;;25.52;64.74;99904.50;343703;28;1403;-81
2022/07/03 00:49:59;;;;;;;387.73;329.10;;;;;;;25.53;64.60;99903.50;342415;28;1321;-81
2022/07/03 00:50:10;;;;;;;382.80;329.83;;;;;;;25.55;64.49;99900.69;341046;29;1304;-81
2022/07/03 00:50:24;;;;;;;382.13;327.50;;;;;;;25.54;64.42;99897.16;343070;28;2009;-81
2022/07/03 00:50:35;;;;;;;379.85;324.95;;;;;;;25.56;64.58;99910.41;343841;28;1376;-81
2022/07/03 00:50:48;;;;;;;379.40;322.95;;;;;;;25.57;64.62;99901.34;342909;28;1200;-81
2022/07/03 00:50:58;;;;;;;380.80;323.08;;;;;;;25.54;64.68;99897.16;344078;28;1254;-81
2022/07/03 00:51:09;;;;;;;382.63;326.35;;;;;;;25.53;64.78;99893.63;344038;28;1223;-81
2022/07/03 00:51:22;;;;;;;386.43;331.43;;;;;;;25.55;64.58;99906.03;344349;28;1315;-81
2022/07/03 00:51:32;;;;;;;383.77;329.00;;;;;;;25.55;64.50;99906.03;341502;29;1000;-81
2022/07/03 00:51:42;;;;;;;380.48;326.92;;;;;;;25.52;64.48;99899.97;343922;28;1298;-81
2022/07/03 00:51:53;;;;;;;382.03;325.17;;;;;;;25.51;64.69;99902.81;344618;28;832;-81